M/y Ava — MMPY8 — position and weather

sailwx.info

Track history (hours):
 
Tides and Currents Weather Stations Pressure Air Temp Water Temp Dewpoint Dewpoint Depression Visibility Wind Speed Wind Dir Waves Ship Positions

M/y Ava

Last reported at 2014-Aug-01 16:29 UTC. Time now 2014-Aug-01 22:39 UTC.
Position N 43°16' E 006°38'.

Length 40 m; draft 2.8 m.

Type: Pleasure craft. MMSI: 232358000.

Date/timePositionNaut miles runAvg speedWind from/ knotsBaromVisibWave heightAir tempDewpointWater temp
2014-Aug-01 16:29N 43°16' E 006°38'3 0.5
2014-Aug-01 10:24N 43°15' E 006°42'3 0.1
2014-Jul-30 12:04N 43°16' E 006°38'1 1.8
2014-Jul-30 11:33N 43°16' E 006°37'0 0.0
2014-Jul-30 10:33N 43°16' E 006°37'0 0.0
2014-Jul-30 09:33N 43°16' E 006°37'0 0.0
2014-Jul-30 08:33N 43°16' E 006°37'0 0.0
2014-Jul-30 07:33N 43°16' E 006°37'0 0.0
2014-Jul-30 06:33N 43°16' E 006°37'0 0.0
2014-Jul-30 05:30N 43°16' E 006°37'0 0.0
2014-Jul-30 04:32N 43°16' E 006°37'0 0.0
2014-Jul-30 03:29N 43°16' E 006°37'0 0.0
2014-Jul-30 02:33N 43°16' E 006°37'0 0.0
2014-Jul-30 01:32N 43°16' E 006°37'0 0.0
2014-Jul-30 00:32N 43°16' E 006°37'0 0.0
2014-Jul-29 23:33N 43°16' E 006°37'0 0.0
2014-Jul-29 22:28N 43°16' E 006°37'0 0.0
2014-Jul-29 21:33N 43°16' E 006°37'0 0.0
2014-Jul-29 20:33N 43°16' E 006°37'0 0.0
2014-Jul-29 19:33N 43°16' E 006°37'3 2.2
2014-Jul-29 18:09N 43°14' E 006°40'1 1.7
2014-Jul-29 17:32N 43°13' E 006°40'0 0.0
2014-Jul-29 16:32N 43°13' E 006°40'0 0.0
2014-Jul-29 15:33N 43°13' E 006°40'0 0.0
2014-Jul-29 14:32N 43°13' E 006°40'0 0.0
2014-Jul-29 13:33N 43°13' E 006°40'0 0.0
2014-Jul-29 12:30N 43°13' E 006°40'0 0.0
2014-Jul-29 11:33N 43°13' E 006°40'0 0.0
2014-Jul-29 10:32N 43°13' E 006°40'0 0.0
2014-Jul-29 09:31N 43°13' E 006°40'0 0.0
2014-Jul-29 08:33N 43°13' E 006°40'0 0.0
2014-Jul-29 07:33N 43°13' E 006°40'0 0.0
2014-Jul-29 06:33N 43°13' E 006°40'0 0.0
2014-Jul-29 05:33N 43°13' E 006°40'0 0.0
2014-Jul-29 04:33N 43°13' E 006°40'0 0.0
2014-Jul-29 03:31N 43°13' E 006°40'0 0.0
2014-Jul-29 02:33N 43°13' E 006°40'0 0.0
2014-Jul-29 01:29N 43°13' E 006°40'0 0.0
2014-Jul-29 00:33N 43°13' E 006°40'0 0.0
2014-Jul-28 23:32N 43°13' E 006°40'0 0.0
2014-Jul-28 22:33N 43°13' E 006°40'0 0.0
2014-Jul-28 21:31N 43°13' E 006°40'0 0.0
2014-Jul-28 20:33N 43°13' E 006°40'0 0.0
2014-Jul-28 19:33N 43°13' E 006°40'0 0.0
2014-Jul-28 18:32N 43°13' E 006°40'0 0.0
2014-Jul-28 17:33N 43°13' E 006°40'0 0.0
2014-Jul-28 16:33N 43°13' E 006°40'0 0.0
2014-Jul-28 15:33N 43°13' E 006°40'0 0.0
2014-Jul-28 14:33N 43°13' E 006°40'0 0.0
2014-Jul-28 13:25N 43°13' E 006°40'2 2.4
2014-Jul-28 12:33N 43°15' E 006°42'3 0.1
2014-Jul-27 11:16N 43°16' E 006°38'1 0.8
2014-Jul-27 10:17N 43°17' E 006°37'0 0.0
2014-Jul-27 09:33N 43°17' E 006°37'0 0.0
2014-Jul-27 08:14N 43°17' E 006°37'0 0.0
2014-Jul-27 07:22N 43°17' E 006°37'0 0.0
2014-Jul-27 04:23N 43°17' E 006°37'0 0.0
2014-Jul-27 03:26N 43°17' E 006°37'0 0.0
2014-Jul-27 01:33N 43°17' E 006°37'0 0.0
2014-Jul-27 00:32N 43°17' E 006°37'0 0.0
2014-Jul-26 23:25N 43°17' E 006°37'0 0.0
2014-Jul-26 22:10N 43°17' E 006°37'0 0.0
2014-Jul-26 21:15N 43°17' E 006°37'0 0.0
2014-Jul-26 20:33N 43°17' E 006°37'4 1.3
2014-Jul-26 17:27N 43°13' E 006°40'0 0.0
2014-Jul-26 16:33N 43°13' E 006°40'0 0.0
2014-Jul-26 15:33N 43°13' E 006°40'0 0.0
2014-Jul-26 14:33N 43°13' E 006°40'0 0.0
2014-Jul-26 13:33N 43°13' E 006°40'4 3.8
2014-Jul-26 12:33N 43°16' E 006°37'1 0.7
2014-Jul-26 11:27N 43°16' E 006°36'0 0.0
2014-Jul-26 10:16N 43°16' E 006°36'0 0.0
2014-Jul-26 09:33N 43°16' E 006°36'0 0.0
2014-Jul-26 08:33N 43°16' E 006°36'0 0.0
2014-Jul-26 07:33N 43°16' E 006°36'0 0.0
2014-Jul-26 05:30N 43°16' E 006°36'0 0.0
2014-Jul-26 04:29N 43°16' E 006°36'0 0.0
2014-Jul-26 03:33N 43°16' E 006°36'0 0.0
2014-Jul-26 02:32N 43°16' E 006°36'0 0.0
2014-Jul-26 01:17N 43°16' E 006°36'0 0.0
2014-Jul-26 00:29N 43°16' E 006°36'0 0.0
2014-Jul-25 23:24N 43°16' E 006°36'0 0.0
2014-Jul-25 22:33N 43°16' E 006°36'0 0.2
2014-Jul-25 21:19N 43°16' E 006°37'0 0.3
2014-Jul-25 20:33N 43°16' E 006°37'0 0.0
2014-Jul-25 19:33N 43°16' E 006°37'4 3.7
2014-Jul-25 18:33N 43°17' E 006°42'4 3.6
2014-Jul-25 17:33N 43°14' E 006°40'0 0.0
2014-Jul-25 16:33N 43°14' E 006°40'0 0.0
2014-Jul-25 15:32N 43°14' E 006°40'0 0.0
2014-Jul-25 14:33N 43°14' E 006°40'0 0.0
2014-Jul-25 13:32N 43°14' E 006°40'7 7.0
2014-Jul-25 12:33N 43°19' E 006°46'1211.8
2014-Jul-25 11:33N 43°26' E 006°59'1211.6
2014-Jul-25 10:33N 43°35' E 007°10'4 4.3
2014-Jul-25 09:33N 43°38' E 007°13'10 0.6
2014-Jul-24 16:10N 43°43' E 007°25'3 5.2
2014-Jul-24 15:32N 43°41' E 007°21'0 0.0
2014-Jul-24 14:33N 43°41' E 007°21'0 0.0
2014-Jul-24 13:32N 43°41' E 007°21'3 0.6
2014-Jul-24 08:19N 43°43' E 007°24'3 4.0
2014-Jul-24 07:32N 43°41' E 007°21'0 0.0
2014-Jul-24 06:10N 43°41' E 007°21'0 0.0
2014-Jul-24 05:32N 43°41' E 007°21'0 0.0
2014-Jul-24 04:32N 43°41' E 007°21'0 0.0
2014-Jul-24 03:32N 43°41' E 007°21'0 0.0
2014-Jul-24 02:33N 43°41' E 007°21'0 0.0
2014-Jul-24 01:33N 43°41' E 007°21'0 0.0
2014-Jul-24 00:31N 43°41' E 007°21'0 0.0
2014-Jul-23 23:33N 43°41' E 007°21'0 0.0
2014-Jul-23 22:33N 43°41' E 007°21'0 0.0
2014-Jul-23 21:30N 43°41' E 007°21'0 0.0
2014-Jul-23 20:31N 43°41' E 007°21'0 0.0
2014-Jul-23 19:33N 43°41' E 007°21'0 0.0
2014-Jul-23 18:26N 43°41' E 007°21'0 0.0
2014-Jul-23 17:33N 43°41' E 007°21'0 0.0
2014-Jul-23 16:33N 43°41' E 007°21'2 0.8
2014-Jul-23 14:29N 43°43' E 007°21'0 0.0
2014-Jul-23 13:32N 43°43' E 007°21'7 6.7
2014-Jul-23 12:32N 43°39' E 007°14'3 3.3
2014-Jul-23 11:33N 43°37' E 007°10'14 0.8
2014-Jul-22 19:13N 43°28' E 006°57'710.6
2014-Jul-22 18:33N 43°22' E 006°52'1111.0
2014-Jul-22 17:32N 43°14' E 006°41'  
Track history (hours):
 
Tides and Currents Weather Stations Pressure Air Temp Water Temp Dewpoint Dewpoint Depression Visibility Wind Speed Wind Dir Waves Ship Positions

M/y Ava

Last reported at 2014-Aug-01 16:29 UTC. Time now 2014-Aug-01 22:39 UTC.
Position N 43°16' E 006°38'.

Length 40 m; draft 2.8 m.

Type: Pleasure craft. MMSI: 232358000.

Date/timePositionNaut miles runAvg speedWind from/ knotsBaromVisibWave heightAir tempDewpointWater temp
2014-Aug-01 16:29N 43°16' E 006°38'3 0.5
2014-Aug-01 10:24N 43°15' E 006°42'3 0.1
2014-Jul-30 12:04N 43°16' E 006°38'1 1.8
2014-Jul-30 11:33N 43°16' E 006°37'0 0.0
2014-Jul-30 10:33N 43°16' E 006°37'0 0.0
2014-Jul-30 09:33N 43°16' E 006°37'0 0.0
2014-Jul-30 08:33N 43°16' E 006°37'0 0.0
2014-Jul-30 07:33N 43°16' E 006°37'0 0.0
2014-Jul-30 06:33N 43°16' E 006°37'0 0.0
2014-Jul-30 05:30N 43°16' E 006°37'0 0.0
2014-Jul-30 04:32N 43°16' E 006°37'0 0.0
2014-Jul-30 03:29N 43°16' E 006°37'0 0.0
2014-Jul-30 02:33N 43°16' E 006°37'0 0.0
2014-Jul-30 01:32N 43°16' E 006°37'0 0.0
2014-Jul-30 00:32N 43°16' E 006°37'0 0.0
2014-Jul-29 23:33N 43°16' E 006°37'0 0.0
2014-Jul-29 22:28N 43°16' E 006°37'0 0.0
2014-Jul-29 21:33N 43°16' E 006°37'0 0.0
2014-Jul-29 20:33N 43°16' E 006°37'0 0.0
2014-Jul-29 19:33N 43°16' E 006°37'3 2.2
2014-Jul-29 18:09N 43°14' E 006°40'1 1.7
2014-Jul-29 17:32N 43°13' E 006°40'0 0.0
2014-Jul-29 16:32N 43°13' E 006°40'0 0.0
2014-Jul-29 15:33N 43°13' E 006°40'0 0.0
2014-Jul-29 14:32N 43°13' E 006°40'0 0.0
2014-Jul-29 13:33N 43°13' E 006°40'0 0.0
2014-Jul-29 12:30N 43°13' E 006°40'0 0.0
2014-Jul-29 11:33N 43°13' E 006°40'0 0.0
2014-Jul-29 10:32N 43°13' E 006°40'0 0.0
2014-Jul-29 09:31N 43°13' E 006°40'0 0.0
2014-Jul-29 08:33N 43°13' E 006°40'0 0.0
2014-Jul-29 07:33N 43°13' E 006°40'0 0.0
2014-Jul-29 06:33N 43°13' E 006°40'0 0.0
2014-Jul-29 05:33N 43°13' E 006°40'0 0.0
2014-Jul-29 04:33N 43°13' E 006°40'0 0.0
2014-Jul-29 03:31N 43°13' E 006°40'0 0.0
2014-Jul-29 02:33N 43°13' E 006°40'0 0.0
2014-Jul-29 01:29N 43°13' E 006°40'0 0.0
2014-Jul-29 00:33N 43°13' E 006°40'0 0.0
2014-Jul-28 23:32N 43°13' E 006°40'0 0.0
2014-Jul-28 22:33N 43°13' E 006°40'0 0.0
2014-Jul-28 21:31N 43°13' E 006°40'0 0.0
2014-Jul-28 20:33N 43°13' E 006°40'0 0.0
2014-Jul-28 19:33N 43°13' E 006°40'0 0.0
2014-Jul-28 18:32N 43°13' E 006°40'0 0.0
2014-Jul-28 17:33N 43°13' E 006°40'0 0.0
2014-Jul-28 16:33N 43°13' E 006°40'0 0.0
2014-Jul-28 15:33N 43°13' E 006°40'0 0.0
2014-Jul-28 14:33N 43°13' E 006°40'0 0.0
2014-Jul-28 13:25N 43°13' E 006°40'2 2.4
2014-Jul-28 12:33N 43°15' E 006°42'3 0.1
2014-Jul-27 11:16N 43°16' E 006°38'1 0.8
2014-Jul-27 10:17N 43°17' E 006°37'0 0.0
2014-Jul-27 09:33N 43°17' E 006°37'0 0.0
2014-Jul-27 08:14N 43°17' E 006°37'0 0.0
2014-Jul-27 07:22N 43°17' E 006°37'0 0.0
2014-Jul-27 04:23N 43°17' E 006°37'0 0.0
2014-Jul-27 03:26N 43°17' E 006°37'0 0.0
2014-Jul-27 01:33N 43°17' E 006°37'0 0.0
2014-Jul-27 00:32N 43°17' E 006°37'0 0.0
2014-Jul-26 23:25N 43°17' E 006°37'0 0.0
2014-Jul-26 22:10N 43°17' E 006°37'0 0.0
2014-Jul-26 21:15N 43°17' E 006°37'0 0.0
2014-Jul-26 20:33N 43°17' E 006°37'4 1.3
2014-Jul-26 17:27N 43°13' E 006°40'0 0.0
2014-Jul-26 16:33N 43°13' E 006°40'0 0.0
2014-Jul-26 15:33N 43°13' E 006°40'0 0.0
2014-Jul-26 14:33N 43°13' E 006°40'0 0.0
2014-Jul-26 13:33N 43°13' E 006°40'4 3.8
2014-Jul-26 12:33N 43°16' E 006°37'1 0.7
2014-Jul-26 11:27N 43°16' E 006°36'0 0.0
2014-Jul-26 10:16N 43°16' E 006°36'0 0.0
2014-Jul-26 09:33N 43°16' E 006°36'0 0.0
2014-Jul-26 08:33N 43°16' E 006°36'0 0.0
2014-Jul-26 07:33N 43°16' E 006°36'0 0.0
2014-Jul-26 05:30N 43°16' E 006°36'0 0.0
2014-Jul-26 04:29N 43°16' E 006°36'0 0.0
2014-Jul-26 03:33N 43°16' E 006°36'0 0.0
2014-Jul-26 02:32N 43°16' E 006°36'0 0.0
2014-Jul-26 01:17N 43°16' E 006°36'0 0.0
2014-Jul-26 00:29N 43°16' E 006°36'0 0.0
2014-Jul-25 23:24N 43°16' E 006°36'0 0.0
2014-Jul-25 22:33N 43°16' E 006°36'0 0.2
2014-Jul-25 21:19N 43°16' E 006°37'0 0.3
2014-Jul-25 20:33N 43°16' E 006°37'0 0.0
2014-Jul-25 19:33N 43°16' E 006°37'4 3.7
2014-Jul-25 18:33N 43°17' E 006°42'4 3.6
2014-Jul-25 17:33N 43°14' E 006°40'0 0.0
2014-Jul-25 16:33N 43°14' E 006°40'0 0.0
2014-Jul-25 15:32N 43°14' E 006°40'0 0.0
2014-Jul-25 14:33N 43°14' E 006°40'0 0.0
2014-Jul-25 13:32N 43°14' E 006°40'7 7.0
2014-Jul-25 12:33N 43°19' E 006°46'1211.8
2014-Jul-25 11:33N 43°26' E 006°59'1211.6
2014-Jul-25 10:33N 43°35' E 007°10'4 4.3
2014-Jul-25 09:33N 43°38' E 007°13'10 0.6
2014-Jul-24 16:10N 43°43' E 007°25'3 5.2
2014-Jul-24 15:32N 43°41' E 007°21'0 0.0
2014-Jul-24 14:33N 43°41' E 007°21'0 0.0
2014-Jul-24 13:32N 43°41' E 007°21'3 0.6
2014-Jul-24 08:19N 43°43' E 007°24'3 4.0
2014-Jul-24 07:32N 43°41' E 007°21'0 0.0
2014-Jul-24 06:10N 43°41' E 007°21'0 0.0
2014-Jul-24 05:32N 43°41' E 007°21'0 0.0
2014-Jul-24 04:32N 43°41' E 007°21'0 0.0
2014-Jul-24 03:32N 43°41' E 007°21'0 0.0
2014-Jul-24 02:33N 43°41' E 007°21'0 0.0
2014-Jul-24 01:33N 43°41' E 007°21'0 0.0
2014-Jul-24 00:31N 43°41' E 007°21'0 0.0
2014-Jul-23 23:33N 43°41' E 007°21'0 0.0
2014-Jul-23 22:33N 43°41' E 007°21'0 0.0
2014-Jul-23 21:30N 43°41' E 007°21'0 0.0
2014-Jul-23 20:31N 43°41' E 007°21'0 0.0
2014-Jul-23 19:33N 43°41' E 007°21'0 0.0
2014-Jul-23 18:26N 43°41' E 007°21'0 0.0
2014-Jul-23 17:33N 43°41' E 007°21'0 0.0
2014-Jul-23 16:33N 43°41' E 007°21'2 0.8
2014-Jul-23 14:29N 43°43' E 007°21'0 0.0
2014-Jul-23 13:32N 43°43' E 007°21'7 6.7
2014-Jul-23 12:32N 43°39' E 007°14'3 3.3
2014-Jul-23 11:33N 43°37' E 007°10'14 0.8
2014-Jul-22 19:13N 43°28' E 006°57'710.6
2014-Jul-22 18:33N 43°22' E 006°52'1111.0
2014-Jul-22 17:32N 43°14' E 006°41'  

Dump ship's entire track history